Time;durP1;ratioP1;P1;durP2;ratioP2;P2;SDS_P1;SDS_P2;PMS_P1;PMS_P2;Temp;Humidity;BMP_temperature;BMP_pressure;BME280_temperature;BME280_humidity;BME280_pressure;Samples;Min_cycle;Max_cycle;Signal;HPM_P1;HPM_P2
2022/12/16 00:00:21;;;;;;;6.03;2.72;;;3.20;99.90;;;;;;5054825;28;20017;-70
2022/12/16 00:02:47;;;;;;;4.45;2.03;;;3.20;99.90;;;;;;5055407;28;20387;-68
2022/12/16 00:05:12;;;;;;;5.80;2.22;;;3.20;99.90;;;;;;5053060;28;20032;-68
2022/12/16 00:07:38;;;;;;;5.95;2.10;;;3.20;99.90;;;;;;5055140;28;20034;-69
2022/12/16 00:10:05;;;;;;;5.47;2.17;;;3.10;99.90;;;;;;5055485;28;20041;-70
2022/12/16 00:12:30;;;;;;;6.90;2.20;;;3.10;99.90;;;;;;5055312;28;20029;-70
2022/12/16 00:14:56;;;;;;;9.15;2.70;;;3.10;99.90;;;;;;5055213;28;20033;-70
2022/12/16 00:17:21;;;;;;;6.88;2.22;;;3.10;99.90;;;;;;5054395;28;20082;-70
2022/12/16 00:19:47;;;;;;;5.80;1.90;;;3.10;99.90;;;;;;5053320;28;20123;-69
2022/12/16 00:22:13;;;;;;;6.35;2.13;;;3.10;99.90;;;;;;5053357;28;20021;-69
2022/12/16 00:24:38;;;;;;;6.32;2.28;;;3.10;99.90;;;;;;5054676;28;20034;-68
2022/12/16 00:27:04;;;;;;;4.78;1.88;;;3.00;99.90;;;;;;5054698;28;20036;-70
2022/12/16 00:29:29;;;;;;;7.38;2.50;;;3.00;99.90;;;;;;5053349;28;20037;-70
2022/12/16 00:31:55;;;;;;;8.73;2.28;;;3.00;99.90;;;;;;5054738;28;20039;-68
2022/12/16 00:34:20;;;;;;;6.93;1.73;;;3.00;99.90;;;;;;5055100;28;20029;-68
2022/12/16 00:36:46;;;;;;;12.85;2.63;;;3.00;99.90;;;;;;5054498;28;20025;-69
2022/12/16 00:39:12;;;;;;;9.35;2.15;;;3.00;99.90;;;;;;5054277;28;20079;-67
2022/12/16 00:41:37;;;;;;;9.43;2.15;;;2.90;99.90;;;;;;5054818;28;20373;-68
2022/12/16 00:44:03;;;;;;;12.98;3.10;;;2.90;99.90;;;;;;5055137;28;20033;-68
2022/12/16 00:46:29;;;;;;;5.97;1.85;;;2.90;99.90;;;;;;5054936;28;20087;-70
2022/12/16 00:48:54;;;;;;;3.90;1.90;;;2.90;99.90;;;;;;5054690;28;20052;-70
2022/12/16 00:51:20;;;;;;;7.78;2.03;;;2.90;99.90;;;;;;5054429;28;20472;-67
2022/12/16 00:53:46;;;;;;;9.55;2.10;;;2.90;99.90;;;;;;5054532;28;20068;-68
2022/12/16 00:56:17;;;;;;;7.60;1.50;;;2.90;99.90;;;;;;5054492;28;20181;-67
2022/12/16 00:58:43;;;;;;;10.20;2.47;;;2.90;99.90;;;;;;5054265;28;20459;-68
2022/12/16 01:01:09;;;;;;;6.18;2.00;;;2.80;99.90;;;;;;5054769;28;20484;-68
2022/12/16 01:03:35;;;;;;;11.65;2.05;;;2.80;99.90;;;;;;5054473;28;20029;-68
2022/12/16 01:06:10;;;;;;;8.90;2.33;;;2.80;99.90;;;;;;5054062;28;20040;-69
2022/12/16 01:08:36;;;;;;;5.78;1.67;;;2.80;99.90;;;;;;5054299;28;20121;-68
2022/12/16 01:11:02;;;;;;;10.02;1.90;;;2.80;99.90;;;;;;5054219;28;20139;-71
2022/12/16 01:13:27;;;;;;;12.00;2.05;;;2.80;99.90;;;;;;5054297;28;20033;-70
2022/12/16 01:15:53;;;;;;;6.50;1.70;;;2.80;99.90;;;;;;5054266;28;20032;-70
2022/12/16 01:18:19;;;;;;;5.40;1.90;;;2.70;99.90;;;;;;5053839;28;20036;-69
2022/12/16 01:20:44;;;;;;;9.18;2.05;;;2.80;99.90;;;;;;5053796;28;20028;-68
2022/12/16 01:23:10;;;;;;;9.52;2.13;;;2.80;99.90;;;;;;5054016;28;20779;-71
2022/12/16 01:25:35;;;;;;;12.30;2.20;;;2.70;99.90;;;;;;5054300;28;20515;-71
2022/12/16 01:28:01;;;;;;;6.10;1.90;;;2.70;99.90;;;;;;5054132;28;20033;-71
2022/12/16 01:30:27;;;;;;;4.95;1.63;;;2.70;99.90;;;;;;5053648;28;20040;-71
2022/12/16 01:32:53;;;;;;;9.63;2.40;;;2.70;99.90;;;;;;5053736;28;20033;-69
2022/12/16 01:35:18;;;;;;;6.03;1.95;;;2.60;99.90;;;;;;5052732;28;20473;-71
2022/12/16 01:37:44;;;;;;;5.50;1.88;;;2.60;99.90;;;;;;5053629;28;20025;-69
2022/12/16 01:40:21;;;;;;;9.93;1.70;;;2.60;99.90;;;;;;5053804;28;20036;-70
2022/12/16 01:42:47;;;;;;;10.38;1.80;;;2.60;99.90;;;;;;5053714;28;20033;-71
2022/12/16 01:45:32;;;;;;;8.55;1.90;;;2.60;99.90;;;;;;5053603;28;20031;-72
2022/12/16 01:48:09;;;;;;;3.80;1.60;;;2.60;99.90;;;;;;5052401;28;20407;-71
2022/12/16 01:50:36;;;;;;;6.53;2.80;;;2.50;99.90;;;;;;5052530;28;20040;-71
2022/12/16 01:53:03;;;;;;;8.98;1.98;;;2.50;99.90;;;;;;5053620;28;20029;-69
2022/12/16 01:55:36;;;;;;;10.70;2.80;;;2.50;99.90;;;;;;5053175;28;20086;-72
2022/12/16 01:58:11;;;;;;;6.10;2.63;;;2.50;99.90;;;;;;5053072;28;20029;-71
2022/12/16 02:00:39;;;;;;;8.88;1.90;;;2.50;99.90;;;;;;5053494;28;20550;-71
2022/12/16 02:03:05;;;;;;;5.63;1.58;;;2.50;99.90;;;;;;5053331;28;20025;-71
2022/12/16 02:05:33;;;;;;;6.22;2.10;;;2.50;99.90;;;;;;5053404;28;20025;-70
2022/12/16 02:08:04;;;;;;;5.60;2.45;;;2.50;99.90;;;;;;5053445;28;20107;-70
2022/12/16 02:10:42;;;;;;;4.47;2.00;;;2.40;99.90;;;;;;5052810;28;20041;-70
2022/12/16 02:13:07;;;;;;;6.47;1.80;;;2.50;99.90;;;;;;5052898;28;20412;-70
2022/12/16 02:15:41;;;;;;;4.57;1.23;;;2.40;99.90;;;;;;5053026;28;20029;-70
2022/12/16 02:18:07;;;;;;;7.03;1.52;;;2.40;99.90;;;;;;5052994;28;20040;-71
2022/12/16 02:20:52;;;;;;;5.88;1.73;;;2.40;99.90;;;;;;5053129;28;20036;-70
2022/12/16 02:23:39;;;;;;;5.38;1.67;;;2.40;99.90;;;;;;5053281;28;20029;-71
2022/12/16 02:26:24;;;;;;;7.07;1.60;;;2.40;99.90;;;;;;5053069;28;20032;-71
2022/12/16 02:29:23;;;;;;;14.27;2.20;;;2.40;99.90;;;;;;5052932;28;20521;-71
2022/12/16 02:31:56;;;;;;;9.18;1.58;;;2.40;99.90;;;;;;5052632;28;20033;-71
2022/12/16 02:34:33;;;;;;;4.95;1.45;;;2.40;99.90;;;;;;5052989;28;20029;-71
2022/12/16 02:37:11;;;;;;;6.60;1.42;;;2.30;99.90;;;;;;5052802;28;20029;-70
2022/12/16 02:39:41;;;;;;;10.75;2.05;;;2.30;99.90;;;;;;5052433;28;20021;-71
2022/12/16 02:42:30;;;;;;;12.27;1.77;;;2.30;99.90;;;;;;5051384;28;20025;-70
2022/12/16 02:45:14;;;;;;;6.78;1.73;;;2.30;99.90;;;;;;5052792;28;20029;-71
2022/12/16 02:47:40;;;;;;;6.65;1.55;;;2.30;99.90;;;;;;5052587;28;20021;-72
2022/12/16 02:50:20;;;;;;;5.80;1.65;;;2.30;99.90;;;;;;5052645;28;20057;-71
2022/12/16 02:52:46;;;;;;;9.68;1.60;;;2.30;99.90;;;;;;5052563;28;20028;-72
2022/12/16 02:55:12;;;;;;;6.88;1.40;;;2.30;99.90;;;;;;5052580;28;20025;-73
2022/12/16 02:57:59;;;;;;;6.90;1.50;;;2.30;99.90;;;;;;5052507;28;20037;-73
2022/12/16 03:00:26;;;;;;;6.85;1.35;;;2.30;99.90;;;;;;5052233;28;20121;-72
2022/12/16 03:03:01;;;;;;;7.88;1.60;;;2.30;99.90;;;;;;5052105;28;20865;-74
2022/12/16 03:05:32;;;;;;;6.82;1.35;;;2.20;99.90;;;;;;5052683;28;20035;-71
2022/12/16 03:08:01;;;;;;;6.70;1.48;;;2.30;99.90;;;;;;5052522;28;20128;-71
2022/12/16 03:10:32;;;;;;;7.43;1.67;;;2.30;99.90;;;;;;5052474;28;20041;-73
2022/12/16 03:13:00;;;;;;;6.60;1.77;;;2.30;99.90;;;;;;5052778;28;20075;-71
2022/12/16 03:15:29;;;;;;;10.18;1.60;;;2.20;99.90;;;;;;5052226;28;20064;-75
2022/12/16 03:17:56;;;;;;;5.88;1.52;;;2.30;99.90;;;;;;5052372;28;20052;-71
2022/12/16 03:20:46;;;;;;;6.05;1.70;;;2.20;99.90;;;;;;5052244;28;20029;-73
2022/12/16 03:23:21;;;;;;;7.97;1.90;;;2.20;99.90;;;;;;5052299;28;20028;-74
2022/12/16 03:25:49;;;;;;;7.57;1.75;;;2.20;99.90;;;;;;5051998;28;20067;-73
2022/12/16 03:28:34;;;;;;;6.80;1.80;;;2.20;99.90;;;;;;5052277;28;20021;-72
2022/12/16 03:31:25;;;;;;;5.10;1.70;;;2.10;99.90;;;;;;5052098;28;20124;-71
2022/12/16 03:34:04;;;;;;;6.00;1.77;;;2.10;99.90;;;;;;5049141;28;20037;-73
2022/12/16 03:36:33;;;;;;;4.22;1.73;;;2.10;99.90;;;;;;5052071;28;20246;-72
2022/12/16 03:39:00;;;;;;;7.75;1.88;;;2.10;99.90;;;;;;5052440;28;20100;-74
2022/12/16 03:41:28;;;;;;;12.70;2.00;;;2.10;99.90;;;;;;5052126;28;20487;-72
2022/12/16 03:43:54;;;;;;;8.43;1.55;;;2.00;99.90;;;;;;5052455;28;20043;-74
2022/12/16 03:46:20;;;;;;;7.15;1.80;;;2.10;99.90;;;;;;5051607;28;20033;-75
2022/12/16 03:48:48;;;;;;;4.22;1.30;;;2.00;99.90;;;;;;5051721;28;20091;-73
2022/12/16 03:51:14;;;;;;;6.45;1.60;;;2.00;99.90;;;;;;5051768;28;20075;-74
2022/12/16 03:53:40;;;;;;;8.95;1.73;;;1.90;99.90;;;;;;5052028;28;20036;-71
2022/12/16 03:56:06;;;;;;;2.15;1.60;;;2.00;99.90;;;;;;5051648;28;20024;-73
2022/12/16 03:58:34;;;;;;;6.35;1.50;;;1.90;99.90;;;;;;5051521;28;20035;-74
2022/12/16 04:01:00;;;;;;;7.18;1.67;;;1.90;99.90;;;;;;5051582;28;20028;-70
2022/12/16 04:03:25;;;;;;;8.77;1.60;;;2.00;99.90;;;;;;5051497;28;20025;-72
2022/12/16 04:05:51;;;;;;;6.90;1.70;;;1.90;99.90;;;;;;5051794;28;20056;-73
2022/12/16 04:08:17;;;;;;;9.63;2.13;;;1.90;99.90;;;;;;5051698;28;20033;-70
2022/12/16 04:24:31;;;;;;;8.65;2.63;;;1.80;99.90;;;;;;5054968;28;20086;-71
2022/12/16 04:32:25;;;;;;;11.30;2.78;;;1.80;99.90;;;;;;5054735;28;20040;-72
2022/12/16 04:34:52;;;;;;;12.23;2.78;;;1.80;99.90;;;;;;5054999;28;20054;-71
